Kezdőlap
METAR-TAF:

METAR-TAF

Repülőterek :

Kuala Lumpur, Malajzia

földrajzi szélesség: 02-44N, földrajzi hosszúság: 101-42E, magasság: 21 m

Jelenlegi meteorológiai megfigyelések

A jelentés 20 perccel ezelõtt készült, 21:30 UTC
Délkeleti szél 5 kt, kelet-északkeleti és dél-délnyugati között változik
Hőmérséklet 29°C
Páratartalom 89%
Légköri nyomás 1008 hPa
Látótávolság: 9000 m
Kevés felhő 1700 lábon, Cumulonimbus.

METAR: WMKK 272130Z 14005KT 070V210 9000 FEW017CB 29/27 Q1008 NOSIG

Idő: 05:50 (21:50 UTC)

Előrejelzés

A jelentés 4 órával és 50 perccel ezelõtt készült, 17:00 UTC
Az előrejelzés 27-én 18 óra UTC és 29-én 00 óra UTC között érvényes
Különbözõ irányokból fújó szél 3 kt
Látótávolság 10 km, vagy több
Kevés felhő 1000 lábon

TAF: WMKK 271700Z 2718/2900 VRB03KT 9999 FEW010

Meteorológiai megfigyelések és előrejelzések több, mint 4000 repülőtéren (METAR és TAF jelentéseket).

A térképen piros és sárga pontok jelzik az elérhető meteorológiai állomásokat.

Mozgassa az egeret a pont fölött, hogy megjelenjen az állomás neve.

Azután kattintson az időjárási megfigyelések és előrejelzések megtekintéséhez.

A térkép megváltoztatása: kattintson a fekete keresztel jelölt zöld gombra ráközelítéshez, a vonallal jelölt zöld gombra távolításhoz, vagy a zöld nyilakra a szomszédos térképek eléréséhez.


METAR-TAF: